KALM/ALM METAR and TAF weather

Enter ICAO airport designator
Station Type Date Time Source
KALM METAR 2021/05/14 06:35 UTC NOAA

KALM 140635Z AUTO 17017KT 10SM CLR 23/04 A3011 RMK AO2


Station Type Date Time Source
KALM Decoded METAR 2021/05/14 06:35 UTC NOAA

Alamogordo-White, NM, United States (KALM) 32-50N 105-59W
May 14, 2021 - 02:35 AM EDT / 2021.05.14 0635 UTC
Wind: from the S (170 degrees) at 20 MPH (17 KT):0
Visibility: 10 mile(s):0
Sky conditions: clear
Temperature: 73 F (23 C)
Dew Point: 39 F (4 C)
Relative Humidity: 28%
Pressure (altimeter): 30.11 in. Hg (1019 hPa)
ob: KALM 140635Z AUTO 17017KT 10SM CLR 23/04 A3011 RMK AO2
cycle: 6

Station Type Date Time Source
KALM TAF UTC NOAA

Error!

Example: see airport list